createdAt,value
2023-01-09T00:00:21.121Z,29.00
2023-01-09T00:05:42.992Z,26.23
2023-01-09T00:11:05.206Z,29.33
2023-01-09T00:16:27.230Z,29.70
2023-01-09T00:21:49.087Z,27.25
2023-01-09T00:27:11.010Z,27.92
2023-01-09T00:32:32.953Z,27.77
2023-01-09T00:37:55.125Z,26.27
2023-01-09T00:43:18.524Z,27.35
2023-01-09T00:48:43.208Z,30.00
2023-01-09T00:54:05.413Z,27.90
2023-01-09T00:59:28.035Z,25.73
2023-01-09T01:04:49.872Z,25.58
2023-01-09T01:10:15.201Z,26.85
2023-01-09T01:15:41.636Z,26.63
2023-01-09T01:26:32.832Z,26.17
2023-01-09T01:31:54.993Z,25.02
2023-01-09T01:37:16.820Z,25.60
2023-01-09T01:42:49.409Z,25.27
2023-01-09T01:48:16.454Z,24.08
2023-01-09T01:53:43.042Z,26.38
2023-01-09T01:59:34.078Z,27.00
2023-01-09T02:04:58.878Z,22.83
2023-01-09T02:10:21.047Z,25.23
2023-01-09T02:16:18.643Z,25.20
2023-01-09T02:21:55.479Z,27.40
2023-01-09T02:27:29.410Z,23.55
2023-01-09T02:33:09.837Z,24.95
2023-01-09T02:39:05.511Z,24.95
2023-01-09T02:44:30.338Z,22.40
2023-01-09T02:49:57.653Z,24.17
2023-01-09T02:55:41.228Z,23.77
2023-01-09T03:01:26.294Z,23.30
2023-01-09T03:12:13.705Z,22.73
2023-01-09T03:17:39.653Z,21.67
2023-01-09T03:23:04.286Z,23.20
2023-01-09T03:28:29.006Z,23.55
2023-01-09T03:33:51.003Z,22.48
2023-01-09T03:39:12.843Z,23.23
2023-01-09T03:44:34.663Z,24.15
2023-01-09T03:49:56.495Z,21.63
2023-01-09T03:55:18.293Z,21.08
2023-01-09T04:00:40.273Z,22.90
2023-01-09T04:06:02.091Z,21.15
2023-01-09T04:11:23.895Z,22.60
2023-01-09T04:16:45.790Z,22.45
2023-01-09T04:22:07.846Z,22.27
2023-01-09T04:27:30.017Z,22.90
2023-01-09T04:32:51.853Z,21.90
2023-01-09T04:38:13.703Z,21.17
2023-01-09T04:43:35.587Z,21.02
2023-01-09T04:48:57.489Z,21.13
2023-01-09T04:54:19.724Z,21.15
2023-01-09T04:59:41.625Z,21.40
2023-01-09T05:05:04.288Z,22.13
2023-01-09T05:10:26.120Z,20.80
2023-01-09T05:15:47.929Z,20.98
2023-01-09T05:21:09.760Z,21.80
2023-01-09T05:26:31.636Z,21.65
2023-01-09T05:31:53.549Z,21.48
2023-01-09T05:37:15.343Z,20.83
2023-01-09T05:42:37.167Z,21.75
2023-01-09T05:47:59.354Z,21.83
2023-01-09T05:53:21.167Z,20.25
2023-01-09T05:58:42.987Z,19.52
2023-01-09T06:04:04.872Z,19.35
2023-01-09T06:09:26.750Z,18.48
2023-01-09T06:14:48.634Z,18.80
2023-01-09T06:20:11.360Z,18.42
2023-01-09T06:25:33.223Z,16.00
2023-01-09T06:30:55.119Z,17.52
2023-01-09T06:36:17.066Z,18.00
2023-01-09T06:41:38.879Z,19.10
2023-01-09T06:47:01.087Z,17.58
2023-01-09T06:52:22.891Z,18.05
2023-01-09T06:57:44.796Z,18.92
2023-01-09T07:03:06.891Z,17.33
2023-01-09T07:08:28.747Z,18.85
2023-01-09T07:13:50.700Z,16.23
2023-01-09T07:19:12.546Z,17.58
2023-01-09T07:24:34.531Z,15.50
2023-01-09T07:29:56.363Z,17.15
2023-01-09T07:35:18.378Z,16.70
2023-01-09T07:40:40.214Z,17.30
2023-01-09T07:46:02.110Z,16.77
2023-01-09T07:51:23.985Z,16.35
2023-01-09T07:56:45.852Z,16.90
2023-01-09T08:02:09.508Z,15.68
2023-01-09T08:07:31.488Z,16.80
2023-01-09T08:12:53.502Z,16.40
2023-01-09T08:18:15.334Z,15.88
2023-01-09T08:23:37.850Z,17.65
2023-01-09T08:28:59.751Z,16.20
2023-01-09T08:34:21.979Z,15.05
2023-01-09T08:39:43.831Z,15.50
2023-01-09T08:45:06.269Z,16.08
2023-01-09T08:50:28.109Z,15.20
2023-01-09T08:55:50.156Z,15.23
2023-01-09T09:01:12.233Z,16.25
2023-01-09T09:06:34.561Z,16.08
2023-01-09T09:11:56.501Z,16.02
2023-01-09T09:17:18.391Z,17.35
2023-01-09T09:22:40.238Z,16.52
2023-01-09T09:28:02.141Z,14.93
2023-01-09T09:33:24.048Z,15.02
2023-01-09T09:38:46.289Z,16.38
2023-01-09T09:44:08.057Z,15.77
2023-01-09T09:49:53.448Z,16.15
2023-01-09T09:55:24.151Z,15.57
2023-01-09T10:00:46.138Z,15.70
2023-01-09T10:06:15.388Z,15.95
2023-01-09T10:11:47.350Z,16.40
2023-01-09T10:17:21.917Z,14.80
2023-01-09T10:22:52.836Z,17.95
2023-01-09T10:28:39.469Z,17.17
2023-01-09T10:34:23.082Z,18.38
2023-01-09T10:39:50.073Z,17.30
2023-01-09T10:45:24.234Z,17.73
2023-01-09T10:50:50.038Z,15.27
2023-01-09T10:56:19.668Z,13.77
2023-01-09T11:01:42.007Z,15.85
2023-01-09T11:07:15.915Z,15.73
2023-01-09T11:12:39.368Z,17.13
2023-01-09T11:18:18.361Z,18.50
2023-01-09T11:23:40.359Z,15.93
2023-01-09T11:29:06.007Z,18.77
2023-01-09T11:34:31.802Z,17.47
2023-01-09T11:39:54.907Z,19.37
2023-01-09T11:45:35.714Z,18.05
2023-01-09T11:50:59.559Z,19.27
2023-01-09T11:56:21.877Z,20.38
2023-01-09T12:02:01.625Z,16.88
2023-01-09T12:07:48.307Z,17.55
2023-01-09T12:13:28.114Z,17.73
2023-01-09T12:19:31.909Z,17.60
2023-01-09T12:24:56.522Z,17.48
2023-01-09T12:30:33.475Z,17.63
2023-01-09T12:36:29.809Z,19.75
2023-01-09T12:42:07.681Z,17.55
2023-01-09T12:47:45.800Z,16.85
2023-01-09T12:53:30.218Z,17.05
2023-01-09T12:58:57.412Z,19.08
2023-01-09T13:04:28.176Z,20.85
2023-01-09T13:09:55.859Z,18.45
2023-01-09T13:15:29.849Z,17.95
2023-01-09T13:20:55.021Z,16.88
2023-01-09T13:26:30.302Z,17.48
2023-01-09T13:32:15.763Z,15.07
2023-01-09T13:37:37.633Z,18.07
2023-01-09T13:43:06.459Z,18.77
2023-01-09T13:48:39.126Z,16.58
2023-01-09T13:54:01.055Z,17.20
2023-01-09T13:59:27.788Z,18.77
2023-01-09T14:04:49.720Z,18.20
2023-01-09T14:10:35.537Z,16.98
2023-01-09T14:16:03.474Z,17.17
2023-01-09T14:21:25.518Z,18.42
2023-01-09T14:26:58.844Z,16.27
2023-01-09T14:32:23.461Z,17.10
2023-01-09T14:37:58.785Z,18.02
2023-01-09T14:43:38.722Z,16.27
2023-01-09T14:49:12.368Z,16.77
2023-01-09T14:54:40.573Z,16.73
2023-01-09T15:00:06.459Z,15.48
2023-01-09T15:05:28.457Z,16.23
2023-01-09T15:10:52.707Z,15.75
2023-01-09T15:16:20.405Z,17.65
2023-01-09T15:21:56.977Z,17.73
2023-01-09T15:27:18.926Z,18.40
2023-01-09T15:32:40.946Z,19.45
2023-01-09T15:38:03.040Z,17.65
2023-01-09T15:43:28.065Z,15.88
2023-01-09T15:48:54.057Z,17.10
2023-01-09T15:54:20.866Z,15.77
2023-01-09T15:59:42.734Z,17.35
2023-01-09T16:05:13.009Z,16.98
2023-01-09T16:10:35.558Z,16.48
2023-01-09T16:16:01.171Z,18.33
2023-01-09T16:21:24.646Z,20.38
2023-01-09T16:26:46.645Z,17.58
2023-01-09T16:32:18.895Z,18.70
2023-01-09T16:37:40.793Z,17.88
2023-01-09T16:43:02.823Z,17.98
2023-01-09T16:48:24.668Z,19.00
2023-01-09T16:53:47.124Z,18.90
2023-01-09T16:59:13.674Z,18.13
2023-01-09T17:09:57.259Z,18.73
2023-01-09T17:15:19.144Z,20.00
2023-01-09T17:20:43.913Z,19.38
2023-01-09T17:26:05.982Z,19.73
2023-01-09T17:31:27.940Z,20.27
2023-01-09T17:36:49.856Z,19.80
2023-01-09T17:42:11.891Z,20.95
2023-01-09T17:47:33.741Z,20.83
2023-01-09T17:52:55.650Z,20.23
2023-01-09T17:58:28.826Z,21.48
2023-01-09T18:03:50.735Z,19.60
2023-01-09T18:09:17.377Z,20.55
2023-01-09T18:14:39.460Z,21.27
2023-01-09T18:20:01.311Z,21.42
2023-01-09T18:25:23.155Z,21.10
2023-01-09T18:30:46.070Z,21.67
2023-01-09T18:36:09.479Z,21.58
2023-01-09T18:41:31.713Z,22.00
2023-01-09T18:46:53.659Z,21.98
2023-01-09T18:52:15.577Z,21.33
2023-01-09T18:57:37.662Z,20.38
2023-01-09T19:02:59.526Z,21.15
2023-01-09T19:08:21.657Z,21.85
2023-01-09T19:13:43.994Z,20.83
2023-01-09T19:19:06.334Z,20.08
2023-01-09T19:24:28.201Z,20.55
2023-01-09T19:29:50.045Z,19.90
2023-01-09T19:35:11.880Z,19.92
2023-01-09T19:40:33.704Z,18.65
2023-01-09T19:45:56.187Z,21.35
2023-01-09T19:51:20.205Z,19.13
2023-01-09T19:56:42.182Z,18.20
2023-01-09T20:02:04.055Z,17.27
2023-01-09T20:07:25.933Z,17.02
2023-01-09T20:12:47.789Z,17.25
2023-01-09T20:18:09.630Z,17.55
2023-01-09T20:23:31.520Z,16.95
2023-01-09T20:28:53.714Z,18.75
2023-01-09T20:34:16.056Z,18.88
2023-01-09T20:39:38.150Z,19.08
2023-01-09T20:45:00.124Z,19.55
2023-01-09T20:50:22.387Z,20.73
2023-01-09T20:55:44.240Z,20.80
2023-01-09T21:01:08.111Z,20.58
2023-01-09T21:06:30.144Z,21.85
2023-01-09T21:11:52.162Z,20.10
2023-01-09T21:17:14.008Z,22.00
2023-01-09T21:22:36.824Z,20.55
2023-01-09T21:27:58.699Z,22.27
2023-01-09T21:33:20.764Z,22.38
2023-01-09T21:38:43.399Z,23.10
2023-01-09T21:44:06.311Z,24.08
2023-01-09T21:49:29.340Z,25.52
2023-01-09T21:54:51.772Z,27.35
2023-01-09T22:00:14.178Z,26.90
2023-01-09T22:05:36.743Z,26.35
2023-01-09T22:10:58.599Z,26.42
2023-01-09T22:16:20.492Z,27.17
2023-01-09T22:21:42.346Z,26.88
2023-01-09T22:27:04.461Z,29.30
2023-01-09T22:32:26.324Z,28.67
2023-01-09T22:37:48.259Z,28.15
2023-01-09T22:43:10.206Z,27.92
2023-01-09T22:48:32.413Z,28.10
2023-01-09T22:53:54.358Z,27.15
2023-01-09T22:59:16.261Z,28.50
2023-01-09T23:04:38.116Z,27.88
2023-01-09T23:10:00.007Z,27.58
2023-01-09T23:15:21.850Z,28.58
2023-01-09T23:20:53.649Z,27.80
2023-01-09T23:26:15.462Z,29.08
2023-01-09T23:31:37.702Z,28.08
2023-01-09T23:36:59.575Z,26.13
2023-01-09T23:42:21.440Z,27.23
2023-01-09T23:47:43.296Z,27.45
2023-01-09T23:53:05.530Z,26.50
2023-01-09T23:58:27.495Z,27.08
